sensor_id;sensor_type;location;lat;lon;timestamp;P1;durP1;ratioP1;P2;durP2;ratioP2
76606;SDS011;65498;50.916;4.698;2023-02-05T00:02:08;4.47;;;1.90;;
76606;SDS011;65498;50.916;4.698;2023-02-05T00:04:36;5.35;;;2.10;;
76606;SDS011;65498;50.916;4.698;2023-02-05T00:07:04;5.72;;;2.30;;
76606;SDS011;65498;50.916;4.698;2023-02-05T00:09:31;5.67;;;2.42;;
76606;SDS011;65498;50.916;4.698;2023-02-05T00:12:01;5.58;;;2.20;;
76606;SDS011;65498;50.916;4.698;2023-02-05T00:14:28;4.97;;;2.15;;
76606;SDS011;65498;50.916;4.698;2023-02-05T00:16:56;5.20;;;2.45;;
76606;SDS011;65498;50.916;4.698;2023-02-05T00:19:24;5.67;;;2.35;;
76606;SDS011;65498;50.916;4.698;2023-02-05T00:21:51;5.47;;;2.30;;
76606;SDS011;65498;50.916;4.698;2023-02-05T00:24:19;5.53;;;2.27;;
76606;SDS011;65498;50.916;4.698;2023-02-05T00:26:46;5.03;;;2.00;;
76606;SDS011;65498;50.916;4.698;2023-02-05T00:29:14;5.62;;;2.15;;
76606;SDS011;65498;50.916;4.698;2023-02-05T00:31:41;5.53;;;2.17;;
76606;SDS011;65498;50.916;4.698;2023-02-05T00:34:08;5.30;;;2.20;;
76606;SDS011;65498;50.916;4.698;2023-02-05T00:36:36;5.15;;;2.17;;
76606;SDS011;65498;50.916;4.698;2023-02-05T00:39:03;6.40;;;2.45;;
76606;SDS011;65498;50.916;4.698;2023-02-05T00:41:33;4.67;;;1.90;;
76606;SDS011;65498;50.916;4.698;2023-02-05T00:44:00;5.37;;;2.20;;
76606;SDS011;65498;50.916;4.698;2023-02-05T00:46:28;6.08;;;2.08;;
76606;SDS011;65498;50.916;4.698;2023-02-05T00:48:56;5.45;;;2.30;;
76606;SDS011;65498;50.916;4.698;2023-02-05T00:51:23;4.97;;;2.25;;
76606;SDS011;65498;50.916;4.698;2023-02-05T00:53:51;4.90;;;2.10;;
76606;SDS011;65498;50.916;4.698;2023-02-05T00:56:18;5.05;;;2.00;;
76606;SDS011;65498;50.916;4.698;2023-02-05T00:58:46;5.15;;;2.02;;
76606;SDS011;65498;50.916;4.698;2023-02-05T01:01:15;5.22;;;2.10;;
76606;SDS011;65498;50.916;4.698;2023-02-05T01:03:43;7.30;;;2.17;;
76606;SDS011;65498;50.916;4.698;2023-02-05T01:06:10;6.25;;;2.62;;
76606;SDS011;65498;50.916;4.698;2023-02-05T01:08:38;5.15;;;2.30;;
76606;SDS011;65498;50.916;4.698;2023-02-05T01:11:06;5.97;;;2.33;;
76606;SDS011;65498;50.916;4.698;2023-02-05T01:13:36;5.90;;;2.45;;
76606;SDS011;65498;50.916;4.698;2023-02-05T01:16:04;5.72;;;2.33;;
76606;SDS011;65498;50.916;4.698;2023-02-05T01:18:32;5.47;;;2.67;;
76606;SDS011;65498;50.916;4.698;2023-02-05T01:21:00;5.78;;;2.20;;
76606;SDS011;65498;50.916;4.698;2023-02-05T01:23:28;5.30;;;2.08;;
76606;SDS011;65498;50.916;4.698;2023-02-05T01:25:55;5.35;;;2.12;;
76606;SDS011;65498;50.916;4.698;2023-02-05T01:28:22;5.92;;;2.60;;
76606;SDS011;65498;50.916;4.698;2023-02-05T01:30:50;6.15;;;2.65;;
76606;SDS011;65498;50.916;4.698;2023-02-05T01:33:18;7.50;;;2.35;;
76606;SDS011;65498;50.916;4.698;2023-02-05T01:35:45;5.40;;;2.10;;
76606;SDS011;65498;50.916;4.698;2023-02-05T01:38:13;6.95;;;2.87;;
76606;SDS011;65498;50.916;4.698;2023-02-05T01:40:41;5.90;;;2.10;;
76606;SDS011;65498;50.916;4.698;2023-02-05T01:43:14;4.87;;;2.27;;
76606;SDS011;65498;50.916;4.698;2023-02-05T01:48:16;7.50;;;2.55;;
76606;SDS011;65498;50.916;4.698;2023-02-05T01:50:50;5.47;;;2.40;;
76606;SDS011;65498;50.916;4.698;2023-02-05T01:53:25;5.17;;;2.17;;
76606;SDS011;65498;50.916;4.698;2023-02-05T01:55:51;5.58;;;2.45;;
76606;SDS011;65498;50.916;4.698;2023-02-05T01:58:21;5.78;;;2.37;;
76606;SDS011;65498;50.916;4.698;2023-02-05T02:03:18;5.22;;;2.20;;
76606;SDS011;65498;50.916;4.698;2023-02-05T02:05:46;5.28;;;2.25;;
76606;SDS011;65498;50.916;4.698;2023-02-05T02:08:14;6.85;;;2.40;;
76606;SDS011;65498;50.916;4.698;2023-02-05T02:10:41;5.65;;;2.37;;
76606;SDS011;65498;50.916;4.698;2023-02-05T02:13:10;5.62;;;2.27;;
76606;SDS011;65498;50.916;4.698;2023-02-05T02:15:39;5.70;;;2.50;;
76606;SDS011;65498;50.916;4.698;2023-02-05T02:18:07;7.53;;;2.45;;
76606;SDS011;65498;50.916;4.698;2023-02-05T02:23:48;5.78;;;2.30;;
76606;SDS011;65498;50.916;4.698;2023-02-05T02:29:01;5.90;;;2.55;;
76606;SDS011;65498;50.916;4.698;2023-02-05T02:34:00;8.38;;;2.20;;
76606;SDS011;65498;50.916;4.698;2023-02-05T02:44:15;15.85;;;2.70;;
76606;SDS011;65498;50.916;4.698;2023-02-05T02:46:55;6.50;;;2.67;;
76606;SDS011;65498;50.916;4.698;2023-02-05T02:49:36;7.15;;;2.65;;
76606;SDS011;65498;50.916;4.698;2023-02-05T02:52:03;7.10;;;3.00;;
76606;SDS011;65498;50.916;4.698;2023-02-05T02:54:33;8.65;;;3.67;;
76606;SDS011;65498;50.916;4.698;2023-02-05T02:57:02;7.08;;;2.80;;
76606;SDS011;65498;50.916;4.698;2023-02-05T02:59:33;7.60;;;2.58;;
76606;SDS011;65498;50.916;4.698;2023-02-05T03:02:04;6.33;;;3.10;;
76606;SDS011;65498;50.916;4.698;2023-02-05T03:04:43;6.55;;;2.62;;
76606;SDS011;65498;50.916;4.698;2023-02-05T03:07:26;9.63;;;3.45;;
76606;SDS011;65498;50.916;4.698;2023-02-05T03:12:40;7.08;;;2.70;;
76606;SDS011;65498;50.916;4.698;2023-02-05T03:15:09;8.08;;;2.95;;
76606;SDS011;65498;50.916;4.698;2023-02-05T03:17:37;5.58;;;2.37;;
76606;SDS011;65498;50.916;4.698;2023-02-05T03:20:18;7.25;;;3.05;;
76606;SDS011;65498;50.916;4.698;2023-02-05T03:22:52;7.90;;;3.08;;
76606;SDS011;65498;50.916;4.698;2023-02-05T03:25:21;5.80;;;2.57;;
76606;SDS011;65498;50.916;4.698;2023-02-05T03:27:51;7.60;;;2.80;;
76606;SDS011;65498;50.916;4.698;2023-02-05T03:30:20;6.92;;;2.52;;
76606;SDS011;65498;50.916;4.698;2023-02-05T03:33:08;6.55;;;2.52;;
76606;SDS011;65498;50.916;4.698;2023-02-05T03:41:39;7.92;;;3.10;;
76606;SDS011;65498;50.916;4.698;2023-02-05T03:47:05;6.62;;;2.50;;
76606;SDS011;65498;50.916;4.698;2023-02-05T03:50:23;5.85;;;2.35;;
76606;SDS011;65498;50.916;4.698;2023-02-05T03:52:16;6.72;;;2.92;;
76606;SDS011;65498;50.916;4.698;2023-02-05T03:54:56;7.22;;;2.42;;
76606;SDS011;65498;50.916;4.698;2023-02-05T03:57:23;5.45;;;2.45;;
76606;SDS011;65498;50.916;4.698;2023-02-05T03:59:56;5.97;;;2.40;;
76606;SDS011;65498;50.916;4.698;2023-02-05T04:02:24;6.37;;;2.60;;
76606;SDS011;65498;50.916;4.698;2023-02-05T04:04:52;5.85;;;2.50;;
76606;SDS011;65498;50.916;4.698;2023-02-05T04:07:19;4.95;;;2.10;;
76606;SDS011;65498;50.916;4.698;2023-02-05T04:09:47;5.85;;;2.27;;
76606;SDS011;65498;50.916;4.698;2023-02-05T04:12:14;6.80;;;2.40;;
76606;SDS011;65498;50.916;4.698;2023-02-05T04:14:42;5.75;;;2.00;;
76606;SDS011;65498;50.916;4.698;2023-02-05T04:17:10;5.60;;;2.15;;
76606;SDS011;65498;50.916;4.698;2023-02-05T04:19:38;5.70;;;2.12;;
76606;SDS011;65498;50.916;4.698;2023-02-05T04:22:06;6.97;;;2.45;;
76606;SDS011;65498;50.916;4.698;2023-02-05T04:24:33;5.42;;;2.05;;
76606;SDS011;65498;50.916;4.698;2023-02-05T04:27:01;5.55;;;2.27;;
76606;SDS011;65498;50.916;4.698;2023-02-05T04:29:28;7.50;;;2.20;;
76606;SDS011;65498;50.916;4.698;2023-02-05T04:31:56;4.45;;;2.10;;
76606;SDS011;65498;50.916;4.698;2023-02-05T04:34:24;6.55;;;2.27;;
76606;SDS011;65498;50.916;4.698;2023-02-05T04:36:51;5.72;;;1.87;;
76606;SDS011;65498;50.916;4.698;2023-02-05T04:39:19;6.95;;;2.47;;
76606;SDS011;65498;50.916;4.698;2023-02-05T04:41:46;4.72;;;2.00;;
76606;SDS011;65498;50.916;4.698;2023-02-05T04:44:14;5.95;;;2.33;;
76606;SDS011;65498;50.916;4.698;2023-02-05T04:46:41;4.87;;;1.80;;
76606;SDS011;65498;50.916;4.698;2023-02-05T04:49:09;4.95;;;1.87;;
76606;SDS011;65498;50.916;4.698;2023-02-05T04:51:36;4.60;;;2.00;;
76606;SDS011;65498;50.916;4.698;2023-02-05T04:54:04;6.65;;;2.10;;
76606;SDS011;65498;50.916;4.698;2023-02-05T04:56:31;5.35;;;1.80;;
76606;SDS011;65498;50.916;4.698;2023-02-05T04:58:59;4.28;;;1.70;;
76606;SDS011;65498;50.916;4.698;2023-02-05T05:01:26;5.90;;;2.00;;
76606;SDS011;65498;50.916;4.698;2023-02-05T05:03:54;5.60;;;1.95;;
76606;SDS011;65498;50.916;4.698;2023-02-05T05:06:22;4.00;;;1.72;;
76606;SDS011;65498;50.916;4.698;2023-02-05T05:08:49;5.83;;;1.92;;
76606;SDS011;65498;50.916;4.698;2023-02-05T05:11:17;4.78;;;1.98;;
76606;SDS011;65498;50.916;4.698;2023-02-05T05:13:45;4.65;;;1.80;;
76606;SDS011;65498;50.916;4.698;2023-02-05T05:16:14;5.83;;;1.87;;
76606;SDS011;65498;50.916;4.698;2023-02-05T05:18:42;5.20;;;1.80;;
76606;SDS011;65498;50.916;4.698;2023-02-05T05:21:09;5.28;;;1.72;;
76606;SDS011;65498;50.916;4.698;2023-02-05T05:23:37;4.20;;;1.52;;
76606;SDS011;65498;50.916;4.698;2023-02-05T05:26:05;4.70;;;1.90;;
76606;SDS011;65498;50.916;4.698;2023-02-05T05:31:06;5.12;;;2.02;;
76606;SDS011;65498;50.916;4.698;2023-02-05T05:33:35;4.83;;;1.92;;
76606;SDS011;65498;50.916;4.698;2023-02-05T05:36:04;4.28;;;1.80;;
76606;SDS011;65498;50.916;4.698;2023-02-05T05:38:32;6.08;;;1.85;;
76606;SDS011;65498;50.916;4.698;2023-02-05T05:41:00;5.03;;;1.80;;
76606;SDS011;65498;50.916;4.698;2023-02-05T05:43:47;4.60;;;1.80;;
76606;SDS011;65498;50.916;4.698;2023-02-05T05:46:18;4.47;;;1.62;;
76606;SDS011;65498;50.916;4.698;2023-02-05T05:48:49;4.37;;;1.57;;
76606;SDS011;65498;50.916;4.698;2023-02-05T05:51:20;4.85;;;1.77;;
76606;SDS011;65498;50.916;4.698;2023-02-05T05:53:49;5.05;;;1.80;;
76606;SDS011;65498;50.916;4.698;2023-02-05T05:56:18;4.00;;;1.55;;
76606;SDS011;65498;50.916;4.698;2023-02-05T05:58:45;4.90;;;2.08;;
76606;SDS011;65498;50.916;4.698;2023-02-05T06:01:14;6.60;;;1.50;;
76606;SDS011;65498;50.916;4.698;2023-02-05T06:03:43;4.58;;;1.60;;
76606;SDS011;65498;50.916;4.698;2023-02-05T06:06:11;5.70;;;2.05;;
76606;SDS011;65498;50.916;4.698;2023-02-05T06:08:39;6.10;;;2.00;;
76606;SDS011;65498;50.916;4.698;2023-02-05T06:11:07;5.08;;;1.90;;
76606;SDS011;65498;50.916;4.698;2023-02-05T06:13:34;5.83;;;1.87;;
76606;SDS011;65498;50.916;4.698;2023-02-05T06:16:02;4.33;;;1.70;;
76606;SDS011;65498;50.916;4.698;2023-02-05T06:18:30;5.03;;;1.77;;
76606;SDS011;65498;50.916;4.698;2023-02-05T06:20:58;4.67;;;1.87;;
76606;SDS011;65498;50.916;4.698;2023-02-05T06:23:26;3.73;;;1.63;;
76606;SDS011;65498;50.916;4.698;2023-02-05T06:25:54;5.28;;;1.82;;
76606;SDS011;65498;50.916;4.698;2023-02-05T06:28:22;4.92;;;1.95;;
76606;SDS011;65498;50.916;4.698;2023-02-05T06:30:50;3.90;;;1.45;;
76606;SDS011;65498;50.916;4.698;2023-02-05T06:33:17;5.60;;;1.85;;
76606;SDS011;65498;50.916;4.698;2023-02-05T06:35:45;5.42;;;1.75;;
76606;SDS011;65498;50.916;4.698;2023-02-05T06:38:12;4.45;;;1.82;;
76606;SDS011;65498;50.916;4.698;2023-02-05T06:40:40;4.25;;;1.82;;
76606;SDS011;65498;50.916;4.698;2023-02-05T06:43:07;4.05;;;1.60;;
76606;SDS011;65498;50.916;4.698;2023-02-05T06:45:35;4.65;;;1.65;;
76606;SDS011;65498;50.916;4.698;2023-02-05T06:48:02;5.72;;;1.80;;
76606;SDS011;65498;50.916;4.698;2023-02-05T06:50:30;4.25;;;1.55;;
76606;SDS011;65498;50.916;4.698;2023-02-05T06:52:58;4.60;;;1.72;;
76606;SDS011;65498;50.916;4.698;2023-02-05T06:55:25;4.55;;;1.60;;
76606;SDS011;65498;50.916;4.698;2023-02-05T06:57:53;4.00;;;1.50;;
76606;SDS011;65498;50.916;4.698;2023-02-05T07:00:20;4.65;;;1.72;;
76606;SDS011;65498;50.916;4.698;2023-02-05T07:02:48;4.45;;;1.70;;
76606;SDS011;65498;50.916;4.698;2023-02-05T07:05:15;4.12;;;1.67;;
76606;SDS011;65498;50.916;4.698;2023-02-05T07:07:43;4.37;;;1.65;;
76606;SDS011;65498;50.916;4.698;2023-02-05T07:10:10;4.42;;;1.87;;
76606;SDS011;65498;50.916;4.698;2023-02-05T07:12:38;4.90;;;1.80;;
76606;SDS011;65498;50.916;4.698;2023-02-05T07:15:06;4.55;;;1.60;;
76606;SDS011;65498;50.916;4.698;2023-02-05T07:17:34;3.85;;;1.47;;
76606;SDS011;65498;50.916;4.698;2023-02-05T07:20:02;6.87;;;2.17;;
76606;SDS011;65498;50.916;4.698;2023-02-05T07:22:30;4.70;;;2.00;;
76606;SDS011;65498;50.916;4.698;2023-02-05T07:24:57;5.08;;;1.60;;
76606;SDS011;65498;50.916;4.698;2023-02-05T07:27:25;4.28;;;1.67;;
76606;SDS011;65498;50.916;4.698;2023-02-05T07:29:53;4.60;;;1.77;;
76606;SDS011;65498;50.916;4.698;2023-02-05T07:32:20;4.33;;;1.45;;
76606;SDS011;65498;50.916;4.698;2023-02-05T07:34:48;3.35;;;1.50;;
76606;SDS011;65498;50.916;4.698;2023-02-05T07:37:15;4.87;;;1.47;;
76606;SDS011;65498;50.916;4.698;2023-02-05T07:39:43;3.80;;;1.72;;
76606;SDS011;65498;50.916;4.698;2023-02-05T07:42:10;3.95;;;1.40;;
76606;SDS011;65498;50.916;4.698;2023-02-05T07:44:38;3.52;;;1.40;;
76606;SDS011;65498;50.916;4.698;2023-02-05T07:47:05;3.42;;;1.30;;
76606;SDS011;65498;50.916;4.698;2023-02-05T07:49:33;2.87;;;1.40;;
76606;SDS011;65498;50.916;4.698;2023-02-05T07:52:00;4.47;;;1.70;;
76606;SDS011;65498;50.916;4.698;2023-02-05T07:54:28;4.83;;;1.42;;
76606;SDS011;65498;50.916;4.698;2023-02-05T07:56:55;4.72;;;1.60;;
76606;SDS011;65498;50.916;4.698;2023-02-05T07:59:25;4.37;;;2.08;;
76606;SDS011;65498;50.916;4.698;2023-02-05T08:01:52;3.58;;;1.35;;
76606;SDS011;65498;50.916;4.698;2023-02-05T08:04:20;4.28;;;1.70;;
76606;SDS011;65498;50.916;4.698;2023-02-05T08:06:47;4.90;;;1.75;;
76606;SDS011;65498;50.916;4.698;2023-02-05T08:09:15;6.62;;;1.60;;
76606;SDS011;65498;50.916;4.698;2023-02-05T08:11:42;4.22;;;1.60;;
76606;SDS011;65498;50.916;4.698;2023-02-05T08:14:10;3.02;;;1.30;;
76606;SDS011;65498;50.916;4.698;2023-02-05T08:16:37;4.22;;;1.40;;
76606;SDS011;65498;50.916;4.698;2023-02-05T08:19:05;3.90;;;1.27;;
76606;SDS011;65498;50.916;4.698;2023-02-05T08:21:33;3.55;;;1.30;;
76606;SDS011;65498;50.916;4.698;2023-02-05T08:24:00;3.37;;;1.27;;
76606;SDS011;65498;50.916;4.698;2023-02-05T08:26:28;4.83;;;1.52;;
76606;SDS011;65498;50.916;4.698;2023-02-05T08:28:55;3.08;;;1.22;;
76606;SDS011;65498;50.916;4.698;2023-02-05T08:31:24;8.17;;;3.10;;
76606;SDS011;65498;50.916;4.698;2023-02-05T08:33:52;4.75;;;1.57;;
76606;SDS011;65498;50.916;4.698;2023-02-05T08:36:21;6.50;;;1.57;;
76606;SDS011;65498;50.916;4.698;2023-02-05T08:38:48;6.03;;;1.80;;
76606;SDS011;65498;50.916;4.698;2023-02-05T08:41:16;3.70;;;1.27;;
76606;SDS011;65498;50.916;4.698;2023-02-05T08:43:44;4.62;;;1.45;;
76606;SDS011;65498;50.916;4.698;2023-02-05T08:46:15;3.17;;;1.35;;
76606;SDS011;65498;50.916;4.698;2023-02-05T08:48:44;4.70;;;1.35;;
76606;SDS011;65498;50.916;4.698;2023-02-05T08:51:13;5.60;;;1.43;;
76606;SDS011;65498;50.916;4.698;2023-02-05T08:53:42;5.50;;;1.47;;
76606;SDS011;65498;50.916;4.698;2023-02-05T08:56:09;3.05;;;1.20;;
76606;SDS011;65498;50.916;4.698;2023-02-05T08:58:39;5.05;;;1.60;;
76606;SDS011;65498;50.916;4.698;2023-02-05T09:01:12;5.97;;;1.47;;
76606;SDS011;65498;50.916;4.698;2023-02-05T09:03:37;6.10;;;1.22;;
76606;SDS011;65498;50.916;4.698;2023-02-05T09:06:08;3.60;;;1.30;;
76606;SDS011;65498;50.916;4.698;2023-02-05T09:08:38;5.97;;;1.80;;
76606;SDS011;65498;50.916;4.698;2023-02-05T09:11:06;7.45;;;1.20;;
76606;SDS011;65498;50.916;4.698;2023-02-05T09:13:34;5.00;;;1.07;;
76606;SDS011;65498;50.916;4.698;2023-02-05T09:16:02;6.80;;;1.50;;
76606;SDS011;65498;50.916;4.698;2023-02-05T09:18:30;4.37;;;1.30;;
76606;SDS011;65498;50.916;4.698;2023-02-05T09:20:58;2.83;;;0.98;;
76606;SDS011;65498;50.916;4.698;2023-02-05T09:23:26;4.22;;;1.45;;
76606;SDS011;65498;50.916;4.698;2023-02-05T09:25:54;3.02;;;1.02;;
76606;SDS011;65498;50.916;4.698;2023-02-05T09:28:24;4.87;;;1.27;;
76606;SDS011;65498;50.916;4.698;2023-02-05T09:30:51;3.72;;;1.45;;
76606;SDS011;65498;50.916;4.698;2023-02-05T09:33:19;4.97;;;1.27;;
76606;SDS011;65498;50.916;4.698;2023-02-05T09:35:46;4.05;;;1.30;;
76606;SDS011;65498;50.916;4.698;2023-02-05T09:38:14;3.25;;;1.20;;
76606;SDS011;65498;50.916;4.698;2023-02-05T09:40:53;3.87;;;1.30;;
76606;SDS011;65498;50.916;4.698;2023-02-05T09:46:42;4.87;;;1.15;;
76606;SDS011;65498;50.916;4.698;2023-02-05T09:49:12;3.83;;;1.45;;
76606;SDS011;65498;50.916;4.698;2023-02-05T09:51:48;5.10;;;1.42;;
76606;SDS011;65498;50.916;4.698;2023-02-05T09:54:17;4.78;;;1.40;;
76606;SDS011;65498;50.916;4.698;2023-02-05T09:56:55;4.60;;;1.25;;
76606;SDS011;65498;50.916;4.698;2023-02-05T09:59:26;4.22;;;1.10;;
76606;SDS011;65498;50.916;4.698;2023-02-05T10:01:56;4.03;;;1.35;;
76606;SDS011;65498;50.916;4.698;2023-02-05T10:04:26;2.85;;;1.00;;
76606;SDS011;65498;50.916;4.698;2023-02-05T10:07:01;5.83;;;1.40;;
76606;SDS011;65498;50.916;4.698;2023-02-05T10:12:42;3.55;;;1.10;;
76606;SDS011;65498;50.916;4.698;2023-02-05T10:26:20;5.33;;;1.65;;
76606;SDS011;65498;50.916;4.698;2023-02-05T10:37:13;4.12;;;1.32;;
76606;SDS011;65498;50.916;4.698;2023-02-05T10:39:44;3.15;;;1.00;;
76606;SDS011;65498;50.916;4.698;2023-02-05T10:42:59;7.12;;;1.52;;
76606;SDS011;65498;50.916;4.698;2023-02-05T10:44:48;5.75;;;1.40;;
76606;SDS011;65498;50.916;4.698;2023-02-05T10:47:20;5.05;;;1.47;;
76606;SDS011;65498;50.916;4.698;2023-02-05T10:49:52;5.42;;;1.30;;
76606;SDS011;65498;50.916;4.698;2023-02-05T10:52:21;5.22;;;1.30;;
76606;SDS011;65498;50.916;4.698;2023-02-05T10:54:49;6.87;;;1.57;;
76606;SDS011;65498;50.916;4.698;2023-02-05T10:57:18;4.20;;;1.60;;
76606;SDS011;65498;50.916;4.698;2023-02-05T11:02:41;7.50;;;1.70;;
76606;SDS011;65498;50.916;4.698;2023-02-05T11:05:17;4.75;;;1.40;;
76606;SDS011;65498;50.916;4.698;2023-02-05T11:07:46;6.15;;;1.50;;
76606;SDS011;65498;50.916;4.698;2023-02-05T11:10:17;5.67;;;1.47;;
76606;SDS011;65498;50.916;4.698;2023-02-05T11:12:56;4.30;;;1.50;;
76606;SDS011;65498;50.916;4.698;2023-02-05T11:15:26;6.28;;;2.25;;
76606;SDS011;65498;50.916;4.698;2023-02-05T11:18:02;6.12;;;1.30;;
76606;SDS011;65498;50.916;4.698;2023-02-05T11:20:35;5.17;;;1.45;;
76606;SDS011;65498;50.916;4.698;2023-02-05T11:23:07;8.20;;;2.77;;
76606;SDS011;65498;50.916;4.698;2023-02-05T11:26:00;10.78;;;3.95;;
76606;SDS011;65498;50.916;4.698;2023-02-05T11:28:26;9.05;;;3.75;;
76606;SDS011;65498;50.916;4.698;2023-02-05T11:31:16;9.55;;;3.80;;
76606;SDS011;65498;50.916;4.698;2023-02-05T11:33:44;7.83;;;2.80;;
76606;SDS011;65498;50.916;4.698;2023-02-05T11:36:18;7.72;;;2.80;;
76606;SDS011;65498;50.916;4.698;2023-02-05T11:38:49;9.00;;;2.50;;
76606;SDS011;65498;50.916;4.698;2023-02-05T11:41:28;8.10;;;2.20;;
76606;SDS011;65498;50.916;4.698;2023-02-05T11:43:57;6.75;;;2.20;;
76606;SDS011;65498;50.916;4.698;2023-02-05T11:46:27;8.45;;;2.20;;
76606;SDS011;65498;50.916;4.698;2023-02-05T11:51:28;8.33;;;2.40;;
76606;SDS011;65498;50.916;4.698;2023-02-05T11:54:11;5.62;;;1.67;;
76606;SDS011;65498;50.916;4.698;2023-02-05T11:59:35;7.37;;;2.10;;
76606;SDS011;65498;50.916;4.698;2023-02-05T12:04:57;7.12;;;2.00;;
76606;SDS011;65498;50.916;4.698;2023-02-05T12:07:40;8.18;;;1.80;;
76606;SDS011;65498;50.916;4.698;2023-02-05T12:16:06;6.70;;;1.87;;
76606;SDS011;65498;50.916;4.698;2023-02-05T12:21:45;6.08;;;1.52;;
76606;SDS011;65498;50.916;4.698;2023-02-05T12:27:15;7.03;;;2.05;;
76606;SDS011;65498;50.916;4.698;2023-02-05T12:30:00;8.85;;;1.70;;
76606;SDS011;65498;50.916;4.698;2023-02-05T12:35:15;7.15;;;1.98;;
76606;SDS011;65498;50.916;4.698;2023-02-05T12:40:38;6.95;;;1.75;;
76606;SDS011;65498;50.916;4.698;2023-02-05T12:45:59;9.68;;;1.90;;
76606;SDS011;65498;50.916;4.698;2023-02-05T12:51:08;8.03;;;2.10;;
76606;SDS011;65498;50.916;4.698;2023-02-05T12:53:55;6.45;;;2.02;;
76606;SDS011;65498;50.916;4.698;2023-02-05T12:59:17;7.50;;;2.00;;
76606;SDS011;65498;50.916;4.698;2023-02-05T13:01:51;5.90;;;1.70;;
76606;SDS011;65498;50.916;4.698;2023-02-05T13:09:54;5.95;;;1.80;;
76606;SDS011;65498;50.916;4.698;2023-02-05T13:12:23;9.28;;;2.05;;
76606;SDS011;65498;50.916;4.698;2023-02-05T13:14:55;7.45;;;1.80;;
76606;SDS011;65498;50.916;4.698;2023-02-05T13:17:25;7.97;;;2.55;;
76606;SDS011;65498;50.916;4.698;2023-02-05T13:19:56;7.67;;;2.20;;
76606;SDS011;65498;50.916;4.698;2023-02-05T13:22:35;7.10;;;1.90;;
76606;SDS011;65498;50.916;4.698;2023-02-05T13:28:03;10.35;;;2.45;;
76606;SDS011;65498;50.916;4.698;2023-02-05T13:30:50;10.80;;;2.42;;
76606;SDS011;65498;50.916;4.698;2023-02-05T13:33:19;12.25;;;2.52;;
76606;SDS011;65498;50.916;4.698;2023-02-05T13:36:08;11.05;;;2.22;;
76606;SDS011;65498;50.916;4.698;2023-02-05T13:44:21;7.50;;;1.90;;
76606;SDS011;65498;50.916;4.698;2023-02-05T13:49:44;9.80;;;2.40;;
76606;SDS011;65498;50.916;4.698;2023-02-05T13:55:21;7.90;;;2.45;;
76606;SDS011;65498;50.916;4.698;2023-02-05T13:58:11;8.25;;;2.40;;
76606;SDS011;65498;50.916;4.698;2023-02-05T14:01:00;9.23;;;2.83;;
76606;SDS011;65498;50.916;4.698;2023-02-05T14:03:38;8.50;;;2.72;;
76606;SDS011;65498;50.916;4.698;2023-02-05T14:06:38;7.58;;;1.98;;
76606;SDS011;65498;50.916;4.698;2023-02-05T14:09:04;6.97;;;2.05;;
76606;SDS011;65498;50.916;4.698;2023-02-05T14:11:41;7.85;;;1.98;;
76606;SDS011;65498;50.916;4.698;2023-02-05T14:14:28;8.40;;;1.92;;
76606;SDS011;65498;50.916;4.698;2023-02-05T14:16:58;8.90;;;2.10;;
76606;SDS011;65498;50.916;4.698;2023-02-05T14:31:02;6.62;;;2.30;;
76606;SDS011;65498;50.916;4.698;2023-02-05T14:38:51;8.53;;;2.37;;
76606;SDS011;65498;50.916;4.698;2023-02-05T14:44:01;7.67;;;2.05;;
76606;SDS011;65498;50.916;4.698;2023-02-05T14:46:40;7.42;;;2.00;;
76606;SDS011;65498;50.916;4.698;2023-02-05T14:50:16;8.03;;;1.95;;
76606;SDS011;65498;50.916;4.698;2023-02-05T14:51:52;8.68;;;1.80;;
76606;SDS011;65498;50.916;4.698;2023-02-05T14:54:23;8.53;;;2.75;;
76606;SDS011;65498;50.916;4.698;2023-02-05T14:57:55;10.58;;;2.90;;
76606;SDS011;65498;50.916;4.698;2023-02-05T14:59:53;7.65;;;2.17;;
76606;SDS011;65498;50.916;4.698;2023-02-05T15:05:14;6.83;;;1.95;;
76606;SDS011;65498;50.916;4.698;2023-02-05T15:07:44;6.45;;;1.65;;
76606;SDS011;65498;50.916;4.698;2023-02-05T15:10:14;10.20;;;2.20;;
76606;SDS011;65498;50.916;4.698;2023-02-05T15:12:54;6.75;;;1.80;;
76606;SDS011;65498;50.916;4.698;2023-02-05T15:15:41;7.47;;;2.25;;
76606;SDS011;65498;50.916;4.698;2023-02-05T15:18:29;8.28;;;2.00;;
76606;SDS011;65498;50.916;4.698;2023-02-05T15:20:58;7.50;;;1.80;;
76606;SDS011;65498;50.916;4.698;2023-02-05T15:23:34;7.05;;;2.27;;
76606;SDS011;65498;50.916;4.698;2023-02-05T15:26:18;6.97;;;2.20;;
76606;SDS011;65498;50.916;4.698;2023-02-05T15:29:04;5.78;;;1.60;;
76606;SDS011;65498;50.916;4.698;2023-02-05T15:31:48;8.08;;;2.12;;
76606;SDS011;65498;50.916;4.698;2023-02-05T15:39:33;6.10;;;1.98;;
76606;SDS011;65498;50.916;4.698;2023-02-05T15:42:02;6.37;;;2.55;;
76606;SDS011;65498;50.916;4.698;2023-02-05T15:44:33;7.25;;;1.85;;
76606;SDS011;65498;50.916;4.698;2023-02-05T15:47:06;6.55;;;1.90;;
76606;SDS011;65498;50.916;4.698;2023-02-05T15:49:37;7.58;;;1.75;;
76606;SDS011;65498;50.916;4.698;2023-02-05T15:52:06;6.40;;;1.98;;
76606;SDS011;65498;50.916;4.698;2023-02-05T15:54:34;6.10;;;1.67;;
76606;SDS011;65498;50.916;4.698;2023-02-05T15:57:02;8.13;;;2.87;;
76606;SDS011;65498;50.916;4.698;2023-02-05T15:59:31;6.97;;;1.95;;
76606;SDS011;65498;50.916;4.698;2023-02-05T16:02:05;7.10;;;1.82;;
76606;SDS011;65498;50.916;4.698;2023-02-05T16:04:31;9.28;;;1.92;;
76606;SDS011;65498;50.916;4.698;2023-02-05T16:07:01;7.60;;;1.80;;
76606;SDS011;65498;50.916;4.698;2023-02-05T16:09:29;8.33;;;2.02;;
76606;SDS011;65498;50.916;4.698;2023-02-05T16:12:09;6.50;;;1.80;;
76606;SDS011;65498;50.916;4.698;2023-02-05T16:14:40;7.25;;;2.40;;
76606;SDS011;65498;50.916;4.698;2023-02-05T16:17:12;6.20;;;2.00;;
76606;SDS011;65498;50.916;4.698;2023-02-05T16:19:48;5.35;;;1.52;;
76606;SDS011;65498;50.916;4.698;2023-02-05T16:22:20;6.20;;;1.90;;
76606;SDS011;65498;50.916;4.698;2023-02-05T16:25:06;9.53;;;2.37;;
76606;SDS011;65498;50.916;4.698;2023-02-05T16:27:41;8.80;;;1.62;;
76606;SDS011;65498;50.916;4.698;2023-02-05T16:30:16;6.40;;;1.60;;
76606;SDS011;65498;50.916;4.698;2023-02-05T16:32:59;9.15;;;2.55;;
76606;SDS011;65498;50.916;4.698;2023-02-05T16:35:29;7.22;;;2.00;;
76606;SDS011;65498;50.916;4.698;2023-02-05T16:37:58;6.70;;;1.80;;
76606;SDS011;65498;50.916;4.698;2023-02-05T16:40:31;6.65;;;1.80;;
76606;SDS011;65498;50.916;4.698;2023-02-05T16:43:14;9.23;;;2.33;;
76606;SDS011;65498;50.916;4.698;2023-02-05T16:46:05;9.23;;;2.72;;
76606;SDS011;65498;50.916;4.698;2023-02-05T16:51:27;6.17;;;1.87;;
76606;SDS011;65498;50.916;4.698;2023-02-05T16:56:43;8.38;;;2.02;;
76606;SDS011;65498;50.916;4.698;2023-02-05T16:59:18;6.67;;;1.80;;
76606;SDS011;65498;50.916;4.698;2023-02-05T17:01:48;8.25;;;2.02;;
76606;SDS011;65498;50.916;4.698;2023-02-05T17:04:23;6.08;;;1.92;;
76606;SDS011;65498;50.916;4.698;2023-02-05T17:06:49;7.10;;;1.90;;
76606;SDS011;65498;50.916;4.698;2023-02-05T17:09:31;5.92;;;1.80;;
76606;SDS011;65498;50.916;4.698;2023-02-05T17:14:57;6.30;;;1.87;;
76606;SDS011;65498;50.916;4.698;2023-02-05T17:25:33;11.33;;;2.85;;
76606;SDS011;65498;50.916;4.698;2023-02-05T17:28:02;9.25;;;3.22;;
76606;SDS011;65498;50.916;4.698;2023-02-05T17:30:31;6.10;;;2.00;;
76606;SDS011;65498;50.916;4.698;2023-02-05T17:32:59;8.30;;;2.30;;
76606;SDS011;65498;50.916;4.698;2023-02-05T17:35:28;13.90;;;3.02;;
76606;SDS011;65498;50.916;4.698;2023-02-05T17:37:58;9.73;;;2.70;;
76606;SDS011;65498;50.916;4.698;2023-02-05T17:40:25;11.15;;;2.45;;
76606;SDS011;65498;50.916;4.698;2023-02-05T17:42:53;9.48;;;2.72;;
76606;SDS011;65498;50.916;4.698;2023-02-05T17:45:26;9.45;;;3.00;;
76606;SDS011;65498;50.916;4.698;2023-02-05T17:47:54;9.20;;;2.55;;
76606;SDS011;65498;50.916;4.698;2023-02-05T17:50:22;11.80;;;2.98;;
76606;SDS011;65498;50.916;4.698;2023-02-05T17:52:49;10.13;;;3.12;;